Barnegat, New Jersey
Current Conditions -  °F | °C
As of 11:15 AM on Thursday 30 Oct 2014 (Local Time) from KMJX Reporting Station
Clear Clear  
Wind Chill: 55°   Ceiling: Unl
Heat Index: 55°   Visibility: 10mi
Dew Point: 41°   Wind: 10mph
Humidity: 58%   Direction: 360°N
Pressure: 30.01"   Gusts: NA
Location:  39.75°N, 74.22°W
Report Text: KMJX 301515Z AUTO 36009KT 10SM CLR 13/05 A3001 RMK AO1
Loading
Personal Weather Stations






























Interactive Weather Map
Tropical Storm Tracking
New forecast layout! Learn more

10-Day Weather Forecast

Advertisements
Track Severe Weather on mobile